Time;durP1;ratioP1;P1;durP2;ratioP2;P2;SDS_P1;SDS_P2;PMS_P1;PMS_P2;Temp;Humidity;BMP_temperature;BMP_pressure;BME280_temperature;BME280_humidity;BME280_pressure;Samples;Min_cycle;Max_cycle;Signal;HPM_P1;HPM_P2
2022/06/28 00:01:16;;;;;;;7.78;5.57;;;;;;;16.25;100.00;101893.97;10353559;28;20080;-66
2022/06/28 00:06:13;;;;;;;10.68;6.43;;;;;;;16.24;100.00;101909.69;10351664;28;20048;-64
2022/06/28 00:11:09;;;;;;;9.40;6.60;;;;;;;16.27;100.00;101919.25;10350051;28;20079;-64
2022/06/28 00:16:06;;;;;;;10.90;8.00;;;;;;;16.14;100.00;101924.63;10363879;28;20076;-64
2022/06/28 00:21:06;;;;;;;11.13;6.72;;;;;;;16.22;100.00;101913.91;10355975;28;20055;-65
2022/06/28 00:26:04;;;;;;;9.88;6.93;;;;;;;16.27;100.00;101906.28;10357346;28;20052;-65
2022/06/28 00:31:03;;;;;;;10.85;8.27;;;;;;;16.30;100.00;101897.34;10351662;28;20044;-66
2022/06/28 00:35:59;;;;;;;9.40;8.20;;;;;;;16.27;100.00;101902.69;10358915;28;20055;-66
2022/06/28 00:40:57;;;;;;;12.90;9.45;;;;;;;16.30;100.00;101913.09;10349265;28;20048;-65
2022/06/28 00:45:53;;;;;;;13.27;9.45;;;;;;;16.34;100.00;101914.06;10351269;28;20040;-65
2022/06/28 00:50:50;;;;;;;14.27;9.00;;;;;;;16.28;100.00;101926.41;10351407;28;20557;-65
2022/06/28 00:55:47;;;;;;;12.27;8.05;;;;;;;16.31;100.00;101932.06;10354714;28;20503;-65
2022/06/28 01:00:47;;;;;;;13.05;9.60;;;;;;;16.34;100.00;101925.09;10342797;28;20071;-67
2022/06/28 01:05:44;;;;;;;18.45;10.68;;;;;;;16.34;100.00;101925.09;10352081;28;20091;-68
2022/06/28 01:10:41;;;;;;;16.30;11.60;;;;;;;16.33;100.00;101946.34;10346871;28;20052;-67
2022/06/28 01:15:40;;;;;;;15.35;11.63;;;;;;;16.30;100.00;101941.50;10343501;28;20165;-67
2022/06/28 01:20:36;;;;;;;18.05;11.35;;;;;;;16.28;100.00;101931.94;10369056;28;20085;-66
2022/06/28 01:25:33;;;;;;;14.50;11.57;;;;;;;16.23;100.00;101940.38;10354513;28;20055;-66
2022/06/28 01:30:30;;;;;;;18.55;11.30;;;;;;;16.17;100.00;101937.75;10357015;28;20494;-66
2022/06/28 01:35:26;;;;;;;17.92;12.13;;;;;;;16.08;100.00;101934.22;10343967;28;20063;-66
2022/06/28 01:40:23;;;;;;;14.68;11.57;;;;;;;16.04;100.00;101938.78;10357677;28;20267;-66
2022/06/28 01:45:20;;;;;;;14.45;10.90;;;;;;;16.00;100.00;101937.78;10344099;28;20533;-65
2022/06/28 01:50:17;;;;;;;14.40;9.23;;;;;;;15.99;100.00;101941.69;10359372;28;20053;-65
2022/06/28 01:55:13;;;;;;;10.82;7.72;;;;;;;15.98;100.00;101964.88;10346526;28;20087;-66
2022/06/28 02:00:10;;;;;;;12.18;9.40;;;;;;;15.97;100.00;101971.56;10355725;28;20074;-65
2022/06/28 02:05:07;;;;;;;16.60;12.75;;;;;;;15.95;100.00;101973.81;10356863;27;20384;-63
2022/06/28 02:10:04;;;;;;;16.70;12.32;;;;;;;15.98;100.00;101973.97;10354307;28;20051;-63
2022/06/28 02:15:01;;;;;;;20.90;13.63;;;;;;;16.03;100.00;101963.91;10359798;28;20476;-63
2022/06/28 02:19:57;;;;;;;23.95;18.00;;;;;;;16.03;100.00;101964.72;10376197;28;20086;-63
2022/06/28 02:24:54;;;;;;;27.75;17.73;;;;;;;16.02;100.00;101954.03;10354034;27;20040;-63
2022/06/28 02:29:50;;;;;;;26.27;18.85;;;;;;;15.97;100.00;101943.97;10351657;28;20080;-63
2022/06/28 02:45:17;;;;;;;22.92;17.15;;;;;;;15.95;100.00;101957.28;10356145;28;20082;-65
2022/06/28 02:50:14;;;;;;;24.77;17.85;;;;;;;15.98;100.00;101956.59;10358284;28;20512;-65
2022/06/28 02:55:11;;;;;;;21.95;17.08;;;;;;;15.97;100.00;101955.00;10350786;28;20067;-65
2022/06/28 03:00:12;;;;;;;24.60;16.08;;;;;;;15.97;100.00;101958.56;10357804;28;20824;-65
2022/06/28 03:05:12;;;;;;;21.60;15.85;;;;;;;15.96;100.00;101953.38;10355055;28;20139;-65
2022/06/28 03:10:09;;;;;;;18.85;15.27;;;;;;;15.95;100.00;101960.03;10350672;28;20115;-65
2022/06/28 03:15:06;;;;;;;22.08;15.77;;;;;;;15.92;100.00;101963.41;10336294;28;20131;-65
2022/06/28 03:20:03;;;;;;;18.17;15.13;;;;;;;15.86;100.00;101960.00;10342847;28;20123;-65
2022/06/28 03:24:59;;;;;;;15.95;14.13;;;;;;;15.82;100.00;101974.78;10343763;28;20480;-65
2022/06/28 03:29:56;;;;;;;18.23;14.43;;;;;;;15.76;100.00;101982.41;10325061;28;20044;-64
2022/06/28 03:34:53;;;;;;;20.92;13.88;;;;;;;15.82;100.00;102002.34;10328168;28;20040;-68
2022/06/28 03:39:49;;;;;;;20.55;13.95;;;;;;;15.83;100.00;102003.97;10322854;28;20951;-68
2022/06/28 03:44:46;;;;;;;15.80;11.77;;;;;;;15.88;100.00;102006.59;10329991;27;20148;-66
2022/06/28 03:49:43;;;;;;;14.15;11.60;;;;;;;15.92;100.00;102018.56;10338840;28;20521;-69
2022/06/28 03:54:39;;;;;;;15.45;11.13;;;;;;;16.00;100.00;102026.06;10333598;28;20124;-68
2022/06/28 03:59:36;;;;;;;14.88;11.10;;;;;;;15.99;100.00;102029.97;10340465;28;20079;-68
2022/06/28 04:04:33;;;;;;;12.82;9.93;;;;;;;16.03;100.00;102044.72;10323527;28;20045;-68
2022/06/28 04:09:29;;;;;;;15.90;10.25;;;;;;;16.06;100.00;102046.84;10332489;28;20495;-68
2022/06/28 04:14:26;;;;;;;12.15;8.23;;;;;;;16.08;100.00;102055.63;10335577;28;20152;-67
2022/06/28 04:19:22;;;;;;;12.70;9.60;;;;;;;16.12;100.00;102064.84;10333233;28;20044;-68
2022/06/28 04:24:19;;;;;;;12.73;9.85;;;;;;;16.15;100.00;102067.00;10330792;28;20135;-68
2022/06/28 04:29:16;;;;;;;17.33;10.73;;;;;;;16.18;100.00;102071.84;10318655;28;20105;-68
2022/06/28 04:34:13;;;;;;;15.05;12.15;;;;;;;16.20;100.00;102080.63;10321609;28;20782;-68
2022/06/28 04:39:09;;;;;;;16.52;12.10;;;;;;;16.29;100.00;102088.09;10329140;28;20086;-68
2022/06/28 04:44:13;;;;;;;19.00;12.45;;;;;;;16.39;100.00;102093.31;10353826;28;20051;-68
2022/06/28 04:49:09;;;;;;;18.35;13.35;;;;;;;16.42;100.00;102092.66;10334280;28;20113;-67
2022/06/28 04:54:06;;;;;;;16.10;11.68;;;;;;;16.49;100.00;102087.44;10320805;28;20041;-68
2022/06/28 04:59:02;;;;;;;18.35;13.57;;;;;;;16.60;100.00;102099.78;10335585;28;20131;-68
2022/06/28 05:03:59;;;;;;;15.90;12.50;;;;;;;16.66;100.00;102096.84;10331069;28;20097;-69
2022/06/28 05:08:56;;;;;;;23.10;14.38;;;;;;;16.72;100.00;102106.63;10335685;28;20267;-69
2022/06/28 05:14:12;;;;;;;15.63;13.00;;;;;;;16.57;100.00;102100.44;10341191;28;20050;-69
2022/06/28 05:19:09;;;;;;;15.43;12.85;;;;;;;16.54;100.00;102092.78;10353093;27;20749;-69
2022/06/28 05:24:05;;;;;;;17.52;13.63;;;;;;;16.63;100.00;102103.84;10351421;28;20048;-69
2022/06/28 05:29:02;;;;;;;17.38;15.48;;;;;;;16.59;100.00;102100.09;10340915;28;20077;-69
2022/06/28 05:33:59;;;;;;;19.25;14.85;;;;;;;16.51;100.00;102101.75;10335883;28;20040;-69
2022/06/28 05:38:56;;;;;;;19.15;14.43;;;;;;;16.57;100.00;102097.69;10353391;28;20119;-68
2022/06/28 05:43:52;;;;;;;19.02;14.68;;;;;;;16.58;100.00;102085.50;10355734;28;20068;-68
2022/06/28 05:48:49;;;;;;;19.73;15.32;;;;;;;16.59;100.00;102070.56;10354775;28;20135;-69
2022/06/28 05:53:46;;;;;;;18.05;16.10;;;;;;;16.51;100.00;102076.09;10358971;28;20854;-69
2022/06/28 05:58:42;;;;;;;16.35;14.13;;;;;;;16.48;100.00;102069.28;10350509;28;20461;-68
2022/06/28 06:03:39;;;;;;;19.67;13.77;;;;;;;16.54;100.00;102079.00;10338043;28;20044;-68
2022/06/28 06:08:36;;;;;;;16.30;12.65;;;;;;;16.66;100.00;102072.00;10336601;28;20113;-69
2022/06/28 06:13:32;;;;;;;13.38;10.98;;;;;;;16.83;100.00;102077.56;10350364;28;21156;-69
2022/06/28 06:18:28;;;;;;;10.90;8.95;;;;;;;16.89;100.00;102067.94;10352091;28;20479;-69
2022/06/28 06:23:26;;;;;;;10.57;8.18;;;;;;;17.14;100.00;102073.75;10337670;28;20098;-69
2022/06/28 06:28:23;;;;;;;13.23;8.80;;;;;;;17.15;100.00;102075.34;10344748;28;20054;-69
2022/06/28 06:33:20;;;;;;;17.30;10.35;;;;;;;17.07;100.00;102078.97;10348026;28;20187;-69
2022/06/28 06:38:16;;;;;;;12.00;9.00;;;;;;;17.10;100.00;102081.06;10364485;28;20113;-69
2022/06/28 06:43:13;;;;;;;11.63;8.27;;;;;;;17.17;100.00;102095.19;10357671;28;20546;-70
2022/06/28 06:48:09;;;;;;;12.82;7.28;;;;;;;17.09;100.00;102088.53;10369522;28;20131;-69
2022/06/28 06:53:06;;;;;;;12.48;7.13;;;;;;;16.91;100.00;102092.47;10353390;28;20143;-69
2022/06/28 06:58:02;;;;;;;10.07;6.55;;;;;;;16.90;100.00;102108.25;10353648;28;20523;-69
2022/06/28 07:03:02;;;;;;;8.40;6.40;;;;;;;16.95;100.00;102116.38;10350032;28;20071;-69
2022/06/28 07:07:58;;;;;;;13.05;7.13;;;;;;;17.01;100.00;102112.31;10350190;27;20044;-69
2022/06/28 07:12:55;;;;;;;10.80;6.32;;;;;;;17.12;100.00;102120.22;10357018;28;20063;-69
2022/06/28 07:17:51;;;;;;;9.88;6.80;;;;;;;17.03;100.00;102123.84;10366551;28;20044;-69
2022/06/28 07:22:48;;;;;;;9.27;6.45;;;;;;;17.17;100.00;102131.09;10353589;28;20075;-69
2022/06/28 07:27:44;;;;;;;10.70;5.85;;;;;;;17.55;100.00;102133.13;10354494;28;20089;-69
2022/06/28 07:32:40;;;;;;;8.75;5.00;;;;;;;17.72;100.00;102119.22;10350858;27;20130;-69
2022/06/28 07:37:38;;;;;;;10.15;5.85;;;;;;;17.72;100.00;102124.75;10359540;28;20082;-69
2022/06/28 07:42:35;;;;;;;6.18;3.90;;;;;;;17.43;100.00;102131.88;10354344;28;20455;-69
2022/06/28 07:47:31;;;;;;;11.45;4.47;;;;;;;17.33;100.00;102136.94;10361718;28;20050;-69
2022/06/28 07:52:37;;;;;;;12.23;5.53;;;;;;;17.38;100.00;102137.59;10362781;28;20048;-69
2022/06/28 07:57:35;;;;;;;7.63;3.92;;;;;;;17.75;100.00;102129.59;10352226;28;20097;-69
2022/06/28 08:02:32;;;;;;;9.85;3.50;;;;;;;17.88;100.00;102131.38;10366134;28;20142;-68
2022/06/28 08:07:28;;;;;;;5.57;2.40;;;;;;;17.98;100.00;102129.38;10360904;27;20040;-69
2022/06/28 08:12:24;;;;;;;5.28;1.65;;;;;;;17.66;100.00;102123.31;10353667;28;20485;-69
2022/06/28 08:17:21;;;;;;;6.18;1.92;;;;;;;17.73;100.00;102129.16;10347043;28;20079;-69
2022/06/28 08:22:18;;;;;;;4.18;1.70;;;;;;;17.87;100.00;102121.47;10355573;27;20078;-69
2022/06/28 08:27:15;;;;;;;4.47;1.30;;;;;;;17.98;100.00;102112.78;10352596;28;20075;-70
2022/06/28 08:32:12;;;;;;;4.50;1.42;;;;;;;18.21;100.00;102122.38;10360887;28;20101;-69
2022/06/28 08:37:15;;;;;;;7.93;1.55;;;;;;;18.35;100.00;102121.31;10362590;28;20056;-69
2022/06/28 08:42:15;;;;;;;5.20;1.45;;;;;;;18.55;100.00;102126.06;10364436;28;20893;-68
2022/06/28 08:47:14;;;;;;;5.85;1.75;;;;;;;18.77;100.00;102127.69;10362310;28;20043;-69
2022/06/28 08:52:13;;;;;;;4.50;0.90;;;;;;;18.82;100.00;102124.72;10365368;28;20792;-69
2022/06/28 08:57:11;;;;;;;5.50;0.90;;;;;;;18.92;100.00;102129.03;10345432;28;20594;-68
2022/06/28 09:02:08;;;;;;;3.30;1.48;;;;;;;19.03;100.00;102130.22;10345408;28;20089;-69
2022/06/28 09:07:04;;;;;;;3.95;0.90;;;;;;;18.98;100.00;102122.09;10350781;28;20085;-69
2022/06/28 09:12:02;;;;;;;3.22;0.63;;;;;;;19.06;100.00;102118.44;10357410;28;20120;-69
2022/06/28 09:17:21;;;;;;;3.13;0.50;;;;;;;19.22;95.53;102109.50;10340530;28;20085;-69
2022/06/28 09:22:37;;;;;;;3.72;0.80;;;;;;;19.39;96.73;102114.03;10344994;28;20126;-69
2022/06/28 09:27:40;;;;;;;3.15;0.57;;;;;;;19.43;90.01;102115.75;10334328;28;20127;-69
2022/06/28 09:32:38;;;;;;;4.43;0.90;;;;;;;19.60;96.61;102119.47;10349286;28;20044;-69
2022/06/28 09:37:48;;;;;;;4.07;0.82;;;;;;;19.89;98.97;102116.50;10346290;28;20073;-69
2022/06/28 09:42:47;;;;;;;3.28;0.70;;;;;;;20.06;91.09;102125.75;10348413;28;20476;-69
2022/06/28 09:47:46;;;;;;;1.50;0.40;;;;;;;20.27;90.89;102125.59;10351012;28;20805;-71
2022/06/28 09:53:00;;;;;;;3.38;0.82;;;;;;;20.23;88.31;102111.59;10345942;28;20151;-69
2022/06/28 09:57:58;;;;;;;2.75;0.90;;;;;;;20.78;96.12;102112.84;10341054;28;20481;-69
2022/06/28 10:02:56;;;;;;;13.25;1.80;;;;;;;21.12;91.19;102120.91;10361083;28;20078;-69
2022/06/28 10:07:53;;;;;;;3.80;0.80;;;;;;;21.27;91.82;102105.41;10339457;28;20067;-69
2022/06/28 10:18:20;;;;;;;1.52;0.40;;;;;;;21.52;80.29;102118.03;10351009;28;20048;-69
2022/06/28 10:23:24;;;;;;;5.28;0.68;;;;;;;22.92;67.41;102109.19;10341943;28;20063;-69
2022/06/28 10:28:33;;;;;;;3.50;0.70;;;;;;;23.92;67.07;102096.97;10339384;28;20044;-69
2022/06/28 10:33:48;;;;;;;4.00;0.70;;;;;;;25.16;60.01;102104.50;10342802;28;20082;-68
2022/06/28 10:39:09;;;;;;;3.08;0.60;;;;;;;25.55;52.72;102099.28;10357618;28;20105;-69
2022/06/28 10:44:11;;;;;;;4.03;0.70;;;;;;;24.86;54.89;102110.19;10346433;28;20037;-68
2022/06/28 10:49:12;;;;;;;3.35;0.50;;;;;;;24.59;53.00;102092.69;10360035;28;20048;-69
2022/06/28 10:54:10;;;;;;;6.03;0.90;;;;;;;24.78;50.54;102081.31;10355732;28;20735;-69
2022/06/28 10:59:12;;;;;;;1.75;0.50;;;;;;;24.80;53.61;102090.16;10354353;28;20059;-69
2022/06/28 11:04:18;;;;;;;3.35;0.73;;;;;;;25.32;52.22;102096.69;10347783;28;20044;-69
2022/06/28 11:09:25;;;;;;;3.63;0.57;;;;;;;25.64;47.33;102084.13;10360855;28;20102;-69
2022/06/28 11:14:30;;;;;;;3.60;0.60;;;;;;;26.38;45.81;102089.38;10354514;28;20463;-68
2022/06/28 11:19:31;;;;;;;4.50;1.00;;;;;;;26.33;48.05;102086.19;10353462;28;20041;-69
2022/06/28 11:24:28;;;;;;;4.75;0.95;;;;;;;27.17;43.11;102083.22;10343620;28;20094;-68
2022/06/28 11:29:25;;;;;;;5.57;0.45;;;;;;;27.87;43.61;102076.00;10349239;28;20508;-69
2022/06/28 11:34:24;;;;;;;2.33;0.60;;;;;;;28.21;42.32;102071.88;10341176;28;20094;-69
2022/06/28 11:39:23;;;;;;;2.22;0.50;;;;;;;28.64;39.54;102077.31;10359640;28;20084;-69
2022/06/28 11:44:21;;;;;;;3.67;0.70;;;;;;;29.24;37.90;102069.72;10342621;28;20667;-69
2022/06/28 11:49:31;;;;;;;5.40;1.10;;;;;;;29.07;38.39;102066.63;10365202;28;20087;-69
2022/06/28 11:54:28;;;;;;;3.83;0.90;;;;;;;28.60;37.75;102060.47;10346624;28;20507;-69
2022/06/28 11:59:51;;;;;;;3.47;0.68;;;;;;;28.55;38.71;102052.47;10366059;28;20040;-69
2022/06/28 12:04:55;;;;;;;3.42;0.82;;;;;;;27.59;37.48;102047.91;10361521;28;20473;-67
2022/06/28 12:09:54;;;;;;;4.10;0.80;;;;;;;26.96;36.98;102051.09;10369938;28;20067;-69
2022/06/28 12:14:56;;;;;;;5.43;0.60;;;;;;;26.69;39.74;102052.66;10364240;28;20050;-69
2022/06/28 12:19:52;;;;;;;6.00;0.70;;;;;;;26.95;41.82;102043.09;10367174;28;20155;-69
2022/06/28 12:24:51;;;;;;;3.85;0.60;;;;;;;27.58;36.68;102035.88;10351407;28;20137;-68
2022/06/28 12:29:57;;;;;;;3.83;0.90;;;;;;;27.96;35.93;102050.25;10357256;28;20102;-69
2022/06/28 12:34:59;;;;;;;4.03;1.00;;;;;;;27.52;34.57;102042.31;10341307;28;20085;-69
2022/06/28 12:39:56;;;;;;;;;;;;;;;26.94;38.63;102041.47;10338101;28;20470;-69
2022/06/28 12:44:53;;;;;;;3.13;0.82;;;;;;;26.32;37.37;102045.31;10357903;28;19926;-68
2022/06/28 12:49:49;;;;;;;3.08;0.82;;;;;;;26.26;39.40;102041.28;10361858;28;20086;-68
2022/06/28 12:54:46;;;;;;;3.17;0.85;;;;;;;25.99;38.25;102044.34;10358443;28;20696;-69
2022/06/28 12:59:43;;;;;;;3.83;0.98;;;;;;;25.25;39.55;102039.84;10357880;28;20066;-69
2022/06/28 13:04:39;;;;;;;3.60;1.00;;;;;;;25.13;40.17;102038.09;10359825;28;20048;-69
2022/06/28 13:09:36;;;;;;;2.78;0.90;;;;;;;25.66;38.09;102032.13;10357430;28;20113;-68
2022/06/28 13:14:32;;;;;;;2.10;0.70;;;;;;;26.40;39.82;102025.31;10356394;28;20071;-69
2022/06/28 13:19:28;;;;;;;4.15;1.02;;;;;;;26.26;38.64;102019.66;10348376;28;20159;-69
2022/06/28 13:24:25;;;;;;;4.13;1.00;;;;;;;26.06;38.35;102038.78;10353625;28;20040;-69
2022/06/28 13:29:22;;;;;;;3.25;0.93;;;;;;;25.48;38.39;102031.22;10351408;28;20466;-69
2022/06/28 13:34:18;;;;;;;4.95;1.05;;;;;;;25.32;39.24;102037.09;10345832;28;20128;-69
2022/06/28 13:39:15;;;;;;;3.65;1.50;;;;;;;25.30;39.65;102026.28;10345656;28;20079;-69
2022/06/28 13:44:16;;;;;;;4.47;1.02;;;;;;;25.03;39.47;102016.44;10355546;28;20048;-69
2022/06/28 13:49:19;;;;;;;4.18;1.10;;;;;;;24.75;42.23;102017.78;10356796;28;20040;-68
2022/06/28 13:54:16;;;;;;;4.28;0.90;;;;;;;24.71;41.92;102016.94;10344437;28;20067;-69
2022/06/28 13:59:12;;;;;;;4.72;0.98;;;;;;;24.87;40.72;102008.31;10353657;28;20036;-68
2022/06/28 14:04:12;;;;;;;6.97;1.48;;;;;;;24.99;43.38;102003.22;10340715;28;20464;-68
2022/06/28 14:09:09;;;;;;;4.65;1.20;;;;;;;24.94;42.72;101997.97;10354984;28;20049;-69
2022/06/28 14:14:06;;;;;;;3.97;0.88;;;;;;;24.38;42.04;102006.56;10352610;28;20040;-69
2022/06/28 14:19:02;;;;;;;5.35;1.50;;;;;;;23.90;42.29;102005.19;10351826;28;20040;-69
2022/06/28 14:23:59;;;;;;;4.38;0.85;;;;;;;23.76;45.48;101995.81;10356136;28;20096;-68
2022/06/28 14:28:56;;;;;;;3.95;1.27;;;;;;;23.66;46.20;101998.03;10358450;27;20059;-69
2022/06/28 14:33:53;;;;;;;2.92;0.80;;;;;;;23.53;48.67;101999.44;10365897;28;20499;-68
2022/06/28 14:38:49;;;;;;;5.55;1.35;;;;;;;23.71;47.82;101989.31;10352862;28;20075;-68
2022/06/28 14:43:46;;;;;;;5.47;0.90;;;;;;;23.67;47.65;101994.06;10372629;28;20126;-68
2022/06/28 14:48:42;;;;;;;4.78;1.25;;;;;;;23.82;46.45;101988.72;10343137;28;20067;-69
2022/06/28 14:53:39;;;;;;;3.63;1.42;;;;;;;24.56;44.47;101986.03;10365079;28;20071;-69
2022/06/28 14:58:35;;;;;;;3.63;0.93;;;;;;;25.32;44.83;101972.72;10360319;28;20087;-68
2022/06/28 15:03:32;;;;;;;3.28;1.20;;;;;;;25.17;41.90;101977.38;10357789;28;20040;-69
2022/06/28 15:08:30;;;;;;;8.65;1.80;;;;;;;24.60;41.75;101966.50;10364495;28;20056;-68
2022/06/28 15:13:29;;;;;;;2.58;0.82;;;;;;;24.16;46.66;101975.59;10344590;28;20054;-68
2022/06/28 15:18:26;;;;;;;3.75;1.10;;;;;;;23.92;47.20;101976.88;10356815;27;20051;-68
2022/06/28 15:33:53;;;;;;;3.78;1.20;;;;;;;24.32;49.00;101955.78;10366617;28;20040;-68
2022/06/28 15:38:49;;;;;;;2.85;1.20;;;;;;;24.88;47.58;101949.19;10354817;28;20422;-68
2022/06/28 15:43:46;;;;;;;4.00;1.25;;;;;;;25.22;44.23;101940.66;10347229;27;20071;-68
2022/06/28 15:48:42;;;;;;;3.78;1.08;;;;;;;25.19;42.13;101936.66;10338934;28;20448;-68
2022/06/28 15:53:39;;;;;;;4.18;1.23;;;;;;;24.86;44.59;101933.97;10352432;27;20067;-68
2022/06/28 15:58:35;;;;;;;4.90;1.10;;;;;;;24.73;46.23;101933.47;10347231;28;20094;-68
2022/06/28 16:03:32;;;;;;;3.63;1.67;;;;;;;24.61;44.91;101928.97;10368770;28;20100;-68
2022/06/28 16:08:28;;;;;;;4.13;1.33;;;;;;;25.06;45.75;101926.13;10364243;28;20064;-68
2022/06/28 16:13:25;;;;;;;4.05;1.30;;;;;;;24.85;51.33;101921.16;10372173;28;20176;-68
2022/06/28 16:18:21;;;;;;;5.20;1.45;;;;;;;25.48;47.13;101919.22;10352056;28;20503;-68
2022/06/28 16:23:18;;;;;;;3.40;1.23;;;;;;;25.10;43.90;101904.56;10361943;28;20517;-68
2022/06/28 16:28:15;;;;;;;4.70;1.20;;;;;;;24.77;55.53;101897.94;10360115;28;20110;-68
2022/06/28 16:33:12;;;;;;;3.58;1.23;;;;;;;25.94;48.51;101890.63;10335689;28;20504;-68
2022/06/28 16:38:08;;;;;;;2.88;1.27;;;;;;;26.95;46.49;101886.75;10327717;28;20457;-68
2022/06/28 16:43:05;;;;;;;3.85;1.10;;;;;;;27.04;42.22;101884.31;10325990;28;20076;-67
2022/06/28 16:48:01;;;;;;;2.53;1.00;;;;;;;27.03;42.30;101874.28;10330899;28;20420;-68
2022/06/28 16:52:59;;;;;;;4.10;1.25;;;;;;;27.34;39.76;101869.06;10329095;28;20496;-68
2022/06/28 16:57:55;;;;;;;5.75;1.15;;;;;;;28.17;35.97;101877.88;10326859;28;20047;-68
2022/06/28 17:02:52;;;;;;;3.72;1.20;;;;;;;28.94;35.26;101871.22;10337743;28;20041;-69
2022/06/28 17:07:48;;;;;;;2.88;0.85;;;;;;;28.85;39.35;101868.13;10341562;28;20389;-68
2022/06/28 17:12:45;;;;;;;3.33;0.75;;;;;;;27.53;38.79;101864.16;10342944;28;20051;-68
2022/06/28 17:17:42;;;;;;;5.65;1.10;;;;;;;26.52;40.01;101858.69;10346492;28;20071;-69
2022/06/28 17:22:39;;;;;;;8.23;1.50;;;;;;;25.70;36.41;101859.31;10341780;28;20064;-68
2022/06/28 17:27:37;;;;;;;5.40;1.30;;;;;;;25.37;44.16;101852.78;10322652;28;20056;-68
2022/06/28 17:32:33;;;;;;;2.80;0.80;;;;;;;25.18;41.14;101861.47;10324976;28;20123;-67
2022/06/28 17:37:30;;;;;;;3.05;0.90;;;;;;;25.04;67.04;101861.34;10315673;28;20059;-68
2022/06/28 17:42:27;;;;;;;5.10;1.00;;;;;;;26.15;52.36;101857.03;10319294;28;20479;-68
2022/06/28 17:47:23;;;;;;;4.15;1.05;;;;;;;27.28;48.03;101859.44;10325750;28;20075;-68
2022/06/28 17:52:20;;;;;;;5.65;1.00;;;;;;;27.99;47.64;101857.50;10333068;28;20056;-68
2022/06/28 17:57:17;;;;;;;4.55;1.13;;;;;;;27.38;44.08;101855.78;10324986;28;20048;-67
2022/06/28 18:02:14;;;;;;;4.65;1.50;;;;;;;27.40;42.63;101864.59;10318011;28;20043;-67
2022/06/28 18:07:11;;;;;;;4.03;1.27;;;;;;;26.78;47.57;101862.31;10320707;28;20074;-67
2022/06/28 18:12:07;;;;;;;4.25;1.90;;;;;;;26.01;52.07;101868.22;10324285;28;20040;-67
2022/06/28 18:17:04;;;;;;;4.20;1.70;;;;;;;25.51;53.23;101873.66;10325741;27;20051;-67
2022/06/28 18:22:01;;;;;;;4.63;1.60;;;;;;;25.11;81.53;101878.19;10323157;28;20438;-67
2022/06/28 18:26:57;;;;;;;3.22;1.52;;;;;;;24.74;78.49;101877.16;10320286;28;20121;-67
2022/06/28 18:31:54;;;;;;;3.92;1.17;;;;;;;24.47;79.19;101873.72;10312356;28;20158;-67
2022/06/28 18:36:51;;;;;;;3.22;1.50;;;;;;;24.19;75.43;101873.44;10323107;28;20051;-67
2022/06/28 18:41:48;;;;;;;4.32;1.55;;;;;;;24.00;84.10;101883.59;10322195;28;20044;-67
2022/06/28 18:46:46;;;;;;;3.78;1.52;;;;;;;23.77;91.24;101885.72;10325632;28;20097;-68
2022/06/28 18:51:42;;;;;;;4.63;1.55;;;;;;;23.56;91.47;101887.03;10326825;28;20356;-67
2022/06/28 18:56:39;;;;;;;6.95;1.90;;;;;;;23.33;93.68;101894.69;10331013;28;20043;-68
2022/06/28 19:01:36;;;;;;;3.50;1.50;;;;;;;23.08;86.80;101890.34;10344562;28;21597;-68
2022/06/28 19:06:32;;;;;;;3.25;1.50;;;;;;;22.90;89.82;101895.63;10336164;28;20047;-67
2022/06/28 19:11:29;;;;;;;6.85;1.42;;;;;;;22.74;91.65;101892.16;10344051;28;20048;-67
2022/06/28 19:16:25;;;;;;;5.85;1.67;;;;;;;22.60;92.90;101891.94;10342361;28;20056;-67
2022/06/28 19:21:23;;;;;;;5.53;1.67;;;;;;;22.41;98.14;101896.38;10345263;28;20473;-67
2022/06/28 19:26:20;;;;;;;3.67;1.63;;;;;;;22.25;100.00;101904.06;10325420;28;20048;-67
2022/06/28 19:31:16;;;;;;;6.60;1.88;;;;;;;22.05;100.00;101901.28;10335120;28;20040;-67
2022/06/28 19:36:13;;;;;;;4.13;1.83;;;;;;;21.89;100.00;101906.13;10344411;28;20064;-67
2022/06/28 19:41:09;;;;;;;5.22;1.73;;;;;;;21.72;100.00;101909.31;10335510;28;20098;-67
2022/06/28 19:46:08;;;;;;;4.30;1.88;;;;;;;21.56;100.00;101901.88;10336527;28;20043;-67
2022/06/28 19:51:04;;;;;;;5.68;1.65;;;;;;;21.40;100.00;101909.47;10355499;28;20700;-67
2022/06/28 19:56:01;;;;;;;7.05;2.17;;;;;;;21.27;100.00;101907.94;10332238;28;20104;-67
2022/06/28 20:00:58;;;;;;;5.28;2.47;;;;;;;21.10;100.00;101907.16;10354002;28;20044;-68
2022/06/28 20:05:54;;;;;;;4.68;2.38;;;;;;;21.01;100.00;101909.31;10325133;28;20484;-67
2022/06/28 20:10:51;;;;;;;5.47;1.95;;;;;;;20.90;100.00;101905.47;10333628;28;20069;-68
2022/06/28 20:15:48;;;;;;;6.80;2.00;;;;;;;20.79;100.00;101919.09;10337647;28;20118;-65
2022/06/28 20:20:44;;;;;;;6.72;2.30;;;;;;;20.69;100.00;101934.34;10318078;28;20135;-63
2022/06/28 20:25:43;;;;;;;5.57;2.00;;;;;;;20.59;100.00;101920.97;10321321;28;20047;-63
2022/06/28 20:30:39;;;;;;;3.42;1.80;;;;;;;20.48;100.00;101930.97;10339633;28;20544;-67
2022/06/28 20:35:36;;;;;;;3.53;1.52;;;;;;;20.41;100.00;101930.78;10334308;28;20097;-69
2022/06/28 20:40:40;;;;;;;4.40;1.80;;;;;;;20.33;100.00;101927.81;10329060;28;20499;-67
2022/06/28 20:45:36;;;;;;;5.35;2.20;;;;;;;20.23;100.00;101936.66;10327941;28;20085;-67
2022/06/28 20:50:33;;;;;;;5.65;1.90;;;;;;;20.16;100.00;101931.69;10343099;28;20086;-67
2022/06/28 20:55:29;;;;;;;4.15;1.60;;;;;;;20.09;100.00;101937.06;10335709;28;20048;-69
2022/06/28 21:00:25;;;;;;;4.88;1.63;;;;;;;20.05;100.00;101946.44;10352152;28;20044;-69
2022/06/28 21:05:22;;;;;;;4.13;1.98;;;;;;;19.95;100.00;101937.44;10349749;28;20052;-69
2022/06/28 21:10:19;;;;;;;4.13;1.55;;;;;;;19.86;100.00;101927.66;10345791;28;20068;-68
2022/06/28 21:15:15;;;;;;;4.90;1.40;;;;;;;19.77;100.00;101936.13;10355137;28;20101;-66
2022/06/28 21:20:11;;;;;;;6.70;1.65;;;;;;;19.68;100.00;101932.66;10346682;28;20090;-67
2022/06/28 21:25:08;;;;;;;4.93;1.35;;;;;;;19.60;100.00;101925.28;10355210;28;20059;-67
2022/06/28 21:30:05;;;;;;;3.38;1.27;;;;;;;19.51;100.00;101928.97;10353564;28;20040;-67
2022/06/28 21:35:02;;;;;;;3.25;1.25;;;;;;;19.48;100.00;101940.78;10352548;28;20098;-68
2022/06/28 21:39:59;;;;;;;6.80;1.85;;;;;;;19.40;100.00;101933.41;10347685;28;20561;-70
2022/06/28 21:44:56;;;;;;;8.23;1.60;;;;;;;19.36;100.00;101940.81;10330152;28;20488;-69
2022/06/28 21:49:52;;;;;;;3.58;1.27;;;;;;;19.29;100.00;101943.38;10346250;27;20135;-68
2022/06/28 21:54:49;;;;;;;3.63;1.40;;;;;;;19.22;100.00;101948.69;10340882;28;20059;-70
2022/06/28 21:59:46;;;;;;;4.20;1.20;;;;;;;19.13;100.00;101957.91;10326052;28;20102;-70
2022/06/28 22:04:42;;;;;;;6.15;1.17;;;;;;;19.05;100.00;101945.00;10352049;28;20084;-70
2022/06/28 22:09:39;;;;;;;4.18;1.33;;;;;;;19.02;100.00;101945.66;10354184;28;20489;-68
2022/06/28 22:14:35;;;;;;;3.53;1.45;;;;;;;19.00;100.00;101947.97;10354138;27;20492;-68
2022/06/28 22:19:32;;;;;;;3.90;1.63;;;;;;;18.96;100.00;101952.59;10349324;28;20079;-71
2022/06/28 22:24:28;;;;;;;2.47;1.23;;;;;;;18.91;100.00;101950.88;10340123;28;20135;-70
2022/06/28 22:29:25;;;;;;;3.63;1.20;;;;;;;18.85;100.00;101956.97;10343940;28;20098;-71
2022/06/28 22:34:21;;;;;;;2.90;1.20;;;;;;;18.77;100.00;101960.66;10340692;28;20048;-69
2022/06/28 22:39:18;;;;;;;4.82;1.65;;;;;;;18.67;100.00;101962.66;10352303;28;20040;-70
2022/06/28 22:44:14;;;;;;;3.97;1.40;;;;;;;18.56;100.00;101966.22;10346007;28;20078;-68
2022/06/28 22:49:11;;;;;;;5.50;1.45;;;;;;;18.57;100.00;101957.59;10354937;28;20073;-68
2022/06/28 22:54:07;;;;;;;5.45;1.73;;;;;;;18.55;100.00;101948.81;10348335;28;20068;-68
2022/06/28 22:59:04;;;;;;;4.05;1.73;;;;;;;18.49;100.00;101950.97;10344577;28;20067;-68